createdAt,value
2019-01-03T00:02:21.445Z,8.60
2019-01-03T00:05:07.004Z,13.27
2019-01-03T00:07:43.252Z,8.17
2019-01-03T00:10:16.210Z,7.87
2019-01-03T00:13:04.798Z,7.87
2019-01-03T00:15:51.136Z,8.67
2019-01-03T00:18:24.144Z,7.73
2019-01-03T00:20:54.396Z,7.80
2019-01-03T00:23:27.804Z,12.10
2019-01-03T00:25:58.174Z,10.77
2019-01-03T00:28:37.454Z,11.37
2019-01-03T00:31:07.777Z,10.43
2019-01-03T00:33:43.850Z,10.23
2019-01-03T00:36:30.577Z,9.07
2019-01-03T00:39:09.753Z,8.70
2019-01-03T00:41:43.209Z,9.70
2019-01-03T00:44:16.319Z,9.60
2019-01-03T00:46:46.751Z,8.17
2019-01-03T00:49:26.002Z,8.60
2019-01-03T00:52:11.256Z,9.43
2019-01-03T00:54:57.860Z,8.73
2019-01-03T00:57:40.700Z,7.97
2019-01-03T01:00:13.830Z,7.33
2019-01-03T01:03:00.925Z,6.50
2019-01-03T01:05:47.453Z,7.27
2019-01-03T01:08:20.475Z,7.93
2019-01-03T01:10:53.460Z,7.33
2019-01-03T01:13:42.660Z,8.10
2019-01-03T01:16:29.260Z,6.50
2019-01-03T01:19:11.633Z,7.40
2019-01-03T01:21:54.072Z,6.80
2019-01-03T01:24:40.564Z,5.93
2019-01-03T01:27:13.892Z,7.27
2019-01-03T01:29:53.458Z,7.33
2019-01-03T01:32:29.618Z,7.47
2019-01-03T01:35:12.416Z,7.77
2019-01-03T01:37:57.631Z,7.53
2019-01-03T01:40:36.723Z,7.27
2019-01-03T01:43:13.079Z,7.20
2019-01-03T01:45:58.928Z,7.03
2019-01-03T01:48:34.814Z,6.90
2019-01-03T01:51:21.523Z,6.83
2019-01-03T01:54:08.190Z,7.30
2019-01-03T01:56:41.752Z,7.83
2019-01-03T01:59:12.005Z,8.03
2019-01-03T02:01:42.372Z,8.53
2019-01-03T02:04:18.677Z,8.00
2019-01-03T02:06:49.089Z,7.53
2019-01-03T02:09:22.296Z,7.70
2019-01-03T02:11:55.588Z,9.13
2019-01-03T02:14:25.828Z,9.87
2019-01-03T02:17:12.450Z,8.83
2019-01-03T02:19:58.987Z,8.17
2019-01-03T02:22:35.267Z,10.17
2019-01-03T02:25:11.317Z,9.03
2019-01-03T02:27:44.535Z,8.70
2019-01-03T02:30:31.226Z,9.80
2019-01-03T02:33:04.614Z,8.67
2019-01-03T02:35:37.901Z,7.53
2019-01-03T02:38:17.058Z,8.37
2019-01-03T02:41:03.372Z,7.43
2019-01-03T02:43:33.754Z,8.90
2019-01-03T02:46:15.927Z,9.63
2019-01-03T02:48:46.206Z,9.13
2019-01-03T02:51:32.796Z,10.70
2019-01-03T02:54:09.078Z,15.60
2019-01-03T02:56:51.329Z,23.50
2019-01-03T02:59:25.013Z,17.57
2019-01-03T03:01:55.262Z,11.60
2019-01-03T03:04:40.771Z,11.17
2019-01-03T03:07:20.079Z,15.33
2019-01-03T03:09:56.392Z,13.97
2019-01-03T03:12:38.778Z,13.33
2019-01-03T03:15:18.239Z,14.50
2019-01-03T03:18:03.773Z,16.90
2019-01-03T03:20:34.054Z,10.73
2019-01-03T03:23:20.890Z,13.57
2019-01-03T03:25:53.992Z,14.23
2019-01-03T03:28:40.601Z,23.63
2019-01-03T03:31:14.332Z,10.80
2019-01-03T03:33:47.423Z,11.40
2019-01-03T03:36:17.688Z,16.30
2019-01-03T03:39:04.221Z,22.07
2019-01-03T03:41:34.471Z,13.27
2019-01-03T03:44:10.873Z,12.93
2019-01-03T03:46:56.179Z,13.87
2019-01-03T03:49:32.681Z,14.67
2019-01-03T03:52:21.083Z,14.77
2019-01-03T03:54:54.365Z,14.90
2019-01-03T03:57:40.954Z,15.77
2019-01-03T04:00:29.496Z,21.77
2019-01-03T04:03:08.557Z,20.97
2019-01-03T04:05:39.058Z,22.17
2019-01-03T04:08:25.445Z,19.87
2019-01-03T04:11:04.963Z,20.03
2019-01-03T04:13:35.213Z,21.57
2019-01-03T04:16:05.467Z,22.40
2019-01-03T04:18:41.933Z,16.77
2019-01-03T04:21:18.216Z,18.37
2019-01-03T04:24:03.725Z,13.47
2019-01-03T04:26:36.669Z,13.37
2019-01-03T04:29:19.244Z,13.00
2019-01-03T04:31:52.410Z,11.77
2019-01-03T04:34:25.744Z,12.13
2019-01-03T04:36:55.992Z,13.50
2019-01-03T04:39:26.243Z,13.50
2019-01-03T04:42:03.897Z,13.33
2019-01-03T04:44:40.091Z,14.40
2019-01-03T04:47:19.596Z,13.77
2019-01-03T04:49:55.864Z,14.03
2019-01-03T04:52:43.858Z,13.83
2019-01-03T04:55:16.892Z,14.07
2019-01-03T04:57:53.368Z,18.63
2019-01-03T05:00:41.631Z,16.40
2019-01-03T05:03:20.950Z,16.07
2019-01-03T05:06:06.134Z,14.83
2019-01-03T05:08:36.979Z,16.60
2019-01-03T05:11:23.599Z,14.07
2019-01-03T05:13:56.625Z,15.00
2019-01-03T05:16:38.810Z,16.07
2019-01-03T05:19:18.295Z,27.23
2019-01-03T05:22:04.819Z,16.23
2019-01-03T05:24:47.714Z,13.27
2019-01-03T05:27:26.982Z,19.90
2019-01-03T05:29:58.690Z,15.37
2019-01-03T05:32:48.224Z,12.30
2019-01-03T05:35:35.499Z,11.67
2019-01-03T05:38:14.586Z,10.93
2019-01-03T05:40:44.905Z,12.70
2019-01-03T05:43:17.923Z,12.27
2019-01-03T05:46:04.829Z,10.13
2019-01-03T05:48:53.375Z,12.47
2019-01-03T05:51:40.237Z,10.10
2019-01-03T05:54:25.551Z,11.20
2019-01-03T05:56:58.936Z,12.03
2019-01-03T05:59:32.197Z,11.87
2019-01-03T06:02:08.348Z,11.00
2019-01-03T06:04:47.342Z,13.37
2019-01-03T06:07:17.764Z,25.50
2019-01-03T06:09:56.828Z,34.00
2019-01-03T06:12:29.929Z,29.90
2019-01-03T06:15:00.221Z,30.97
2019-01-03T06:17:39.793Z,35.50
2019-01-03T06:20:10.248Z,44.07
2019-01-03T06:22:56.835Z,51.03
2019-01-03T06:25:45.097Z,56.43
2019-01-03T06:28:15.595Z,53.90
2019-01-03T06:30:51.987Z,55.77
2019-01-03T06:33:31.564Z,58.90
2019-01-03T06:36:07.958Z,71.97
2019-01-03T06:38:44.215Z,179.90
2019-01-03T06:41:14.482Z,124.87
2019-01-03T06:43:51.040Z,100.33
2019-01-03T06:46:37.586Z,134.23
2019-01-03T06:49:24.146Z,92.93
2019-01-03T06:51:54.401Z,83.73
2019-01-03T06:54:27.401Z,82.10
2019-01-03T06:57:16.202Z,79.10
2019-01-03T06:59:46.453Z,90.93
2019-01-03T07:02:19.780Z,126.37
2019-01-03T07:05:05.219Z,100.73
2019-01-03T07:07:51.532Z,91.07
2019-01-03T07:10:23.272Z,91.30
2019-01-03T07:13:09.690Z,79.27
2019-01-03T07:15:56.661Z,50.30
2019-01-03T07:18:43.020Z,45.93
2019-01-03T07:21:27.311Z,46.90
2019-01-03T07:24:12.307Z,49.87
2019-01-03T07:26:42.793Z,40.90
2019-01-03T07:29:28.074Z,26.93
2019-01-03T07:32:13.562Z,19.93
2019-01-03T07:34:52.617Z,19.53
2019-01-03T07:37:26.098Z,18.20
2019-01-03T07:39:56.349Z,20.67
2019-01-03T07:42:43.140Z,16.63
2019-01-03T07:45:22.651Z,14.90
2019-01-03T07:47:53.043Z,14.00
2019-01-03T07:50:26.028Z,14.73
2019-01-03T07:53:05.247Z,21.70
2019-01-03T07:55:35.498Z,21.23
2019-01-03T07:58:18.051Z,18.13
2019-01-03T08:01:00.517Z,14.87
2019-01-03T08:03:30.974Z,16.10
2019-01-03T08:06:06.966Z,17.10
2019-01-03T08:08:53.648Z,14.80
2019-01-03T08:11:40.099Z,22.10
2019-01-03T08:14:28.771Z,20.90
2019-01-03T08:17:15.307Z,23.60
2019-01-03T08:19:45.631Z,28.63
2019-01-03T08:22:15.880Z,30.00
2019-01-03T08:24:55.392Z,34.57
2019-01-03T08:27:40.668Z,41.17
2019-01-03T08:30:16.632Z,63.33
2019-01-03T08:32:52.883Z,54.73
2019-01-03T08:35:39.510Z,54.73
2019-01-03T08:38:19.043Z,36.77
2019-01-03T08:41:08.014Z,20.00
2019-01-03T08:43:54.395Z,15.23
2019-01-03T08:46:32.189Z,12.53
2019-01-03T08:49:14.712Z,13.20
2019-01-03T08:51:47.997Z,14.53
2019-01-03T08:54:30.555Z,14.80
2019-01-03T08:57:07.075Z,7.53
2019-01-03T08:59:52.361Z,9.47
2019-01-03T09:02:32.306Z,11.40
2019-01-03T09:05:09.584Z,11.80
2019-01-03T09:07:55.111Z,13.03
2019-01-03T09:10:34.653Z,16.07
2019-01-03T09:13:11.150Z,9.17
2019-01-03T09:15:41.399Z,8.63
2019-01-03T09:18:28.314Z,10.87
2019-01-03T09:20:58.506Z,11.47
2019-01-03T09:23:31.710Z,12.23
2019-01-03T09:26:02.197Z,10.50
2019-01-03T09:28:48.800Z,15.13
2019-01-03T09:31:22.114Z,10.37
2019-01-03T09:33:52.379Z,9.50
2019-01-03T09:36:31.610Z,11.80
2019-01-03T09:39:01.860Z,9.83
2019-01-03T09:41:41.013Z,10.33
2019-01-03T09:44:14.228Z,10.20
2019-01-03T09:46:42.911Z,10.57
2019-01-03T09:49:11.679Z,14.40
2019-01-03T09:51:40.356Z,7.73
2019-01-03T09:54:09.147Z,6.40
2019-01-03T09:56:38.018Z,10.03
2019-01-03T09:59:06.720Z,8.63
2019-01-03T10:01:35.409Z,11.67
2019-01-03T10:04:04.270Z,6.37
2019-01-03T10:06:32.980Z,8.33
2019-01-03T10:09:01.653Z,7.17
2019-01-03T10:11:30.743Z,8.27
2019-01-03T10:13:59.460Z,10.83
2019-01-03T10:16:28.157Z,10.67
2019-01-03T10:18:57.200Z,11.10
2019-01-03T10:21:25.875Z,11.00
2019-01-03T10:23:54.559Z,11.07
2019-01-03T10:26:23.287Z,14.60
2019-01-03T10:28:51.969Z,11.80
2019-01-03T10:31:20.643Z,14.03
2019-01-03T10:33:49.621Z,16.00
2019-01-03T10:36:24.215Z,11.93
2019-01-03T10:38:49.284Z,15.47
2019-01-03T10:41:18.433Z,12.43
2019-01-03T10:43:47.114Z,11.40
2019-01-03T10:46:15.804Z,11.57
2019-01-03T10:48:44.548Z,12.03
2019-01-03T10:51:13.240Z,12.67
2019-01-03T10:53:41.930Z,12.77
2019-01-03T10:56:10.668Z,14.47
2019-01-03T10:58:39.352Z,20.63
2019-01-03T11:01:08.019Z,13.43
2019-01-03T11:03:36.741Z,14.37
2019-01-03T11:06:05.428Z,14.90
2019-01-03T11:08:34.189Z,16.90
2019-01-03T11:11:02.944Z,19.73
2019-01-03T11:13:31.609Z,13.53
2019-01-03T11:16:00.312Z,16.17
2019-01-03T11:18:29.131Z,14.50
2019-01-03T11:20:57.812Z,15.10
2019-01-03T11:23:26.497Z,13.40
2019-01-03T11:25:55.263Z,10.97
2019-01-03T11:28:23.937Z,8.80
2019-01-03T11:30:52.621Z,9.40
2019-01-03T11:33:21.647Z,8.70
2019-01-03T11:35:50.332Z,11.43
2019-01-03T11:38:19.019Z,11.93
2019-01-03T11:40:48.188Z,11.27
2019-01-03T11:43:16.858Z,11.93
2019-01-03T11:45:45.531Z,8.73
2019-01-03T11:48:14.346Z,11.30
2019-01-03T11:50:43.040Z,13.30
2019-01-03T11:53:11.739Z,13.03
2019-01-03T11:55:40.617Z,17.13
2019-01-03T11:58:09.272Z,13.13
2019-01-03T12:00:37.952Z,13.40
2019-01-03T12:03:07.732Z,15.47
2019-01-03T12:05:36.429Z,12.73
2019-01-03T12:08:05.121Z,11.57
2019-01-03T12:10:34.325Z,13.23
2019-01-03T12:13:03.021Z,11.37
2019-01-03T12:15:31.679Z,13.97
2019-01-03T12:18:00.466Z,11.03
2019-01-03T12:20:29.152Z,12.53
2019-01-03T12:22:57.840Z,12.03
2019-01-03T12:25:26.892Z,12.13
2019-01-03T12:27:55.563Z,11.50
2019-01-03T12:30:24.239Z,10.63
2019-01-03T12:32:54.424Z,12.83
2019-01-03T12:35:23.130Z,11.83
2019-01-03T12:37:51.809Z,11.20
2019-01-03T12:40:20.655Z,12.23
2019-01-03T12:42:49.344Z,10.17
2019-01-03T12:45:18.028Z,17.53
2019-01-03T12:47:46.748Z,21.33
2019-01-03T12:50:15.431Z,18.83
2019-01-03T12:52:44.121Z,9.63
2019-01-03T12:55:13.979Z,19.77
2019-01-03T12:57:42.658Z,21.27
2019-01-03T13:00:12.729Z,15.80
2019-01-03T13:02:41.642Z,16.50
2019-01-03T13:05:11.022Z,16.23
2019-01-03T13:07:39.704Z,17.23
2019-01-03T13:10:09.378Z,18.10
2019-01-03T13:12:38.139Z,18.50
2019-01-03T13:15:07.335Z,11.10
2019-01-03T13:17:36.211Z,11.70
2019-01-03T13:20:07.169Z,13.30
2019-01-03T13:22:36.671Z,18.30
2019-01-03T13:25:06.383Z,21.57
2019-01-03T13:27:36.163Z,19.23
2019-01-03T13:30:07.735Z,19.97
2019-01-03T13:32:36.430Z,20.43
2019-01-03T13:35:05.600Z,15.63
2019-01-03T13:37:36.278Z,14.67
2019-01-03T13:40:06.346Z,11.97
2019-01-03T13:42:35.034Z,27.87
2019-01-03T13:45:04.094Z,16.50
2019-01-03T13:47:32.773Z,15.13
2019-01-03T13:50:02.245Z,13.67
2019-01-03T13:52:31.817Z,17.00
2019-01-03T13:55:00.511Z,13.60
2019-01-03T13:57:29.215Z,14.20
2019-01-03T13:59:58.428Z,15.53
2019-01-03T14:02:27.113Z,16.73
2019-01-03T14:04:55.801Z,18.30
2019-01-03T14:07:24.582Z,22.80
2019-01-03T14:09:53.270Z,20.50
2019-01-03T14:12:22.647Z,16.73
2019-01-03T14:14:51.479Z,18.43
2019-01-03T14:17:20.167Z,20.63
2019-01-03T14:19:48.845Z,15.20
2019-01-03T14:22:17.680Z,11.87
2019-01-03T14:24:46.365Z,13.77
2019-01-03T14:27:15.080Z,14.73
2019-01-03T14:29:43.935Z,13.13
2019-01-03T14:32:12.626Z,16.50
2019-01-03T14:34:41.315Z,13.10
2019-01-03T14:37:10.153Z,17.80
2019-01-03T14:39:38.828Z,27.73
2019-01-03T14:42:09.025Z,17.67
2019-01-03T14:44:38.758Z,15.30
2019-01-03T14:47:07.430Z,16.20
2019-01-03T14:49:36.118Z,18.77
2019-01-03T14:52:06.013Z,17.60
2019-01-03T14:54:34.709Z,23.17
2019-01-03T14:57:03.385Z,17.07
2019-01-03T14:59:33.825Z,20.80
2019-01-03T15:02:02.606Z,25.07
2019-01-03T15:04:33.950Z,20.93
2019-01-03T15:07:02.981Z,28.93
2019-01-03T15:09:31.664Z,24.10
2019-01-03T15:12:02.424Z,21.73
2019-01-03T15:14:32.583Z,37.90
2019-01-03T15:17:01.412Z,64.80
2019-01-03T15:19:30.387Z,39.23
2019-01-03T15:21:59.050Z,42.77
2019-01-03T15:24:27.729Z,29.30
2019-01-03T15:26:56.385Z,37.53
2019-01-03T15:29:26.095Z,40.57
2019-01-03T15:31:54.987Z,49.10
2019-01-03T15:34:24.090Z,56.63
2019-01-03T15:36:52.791Z,58.83
2019-01-03T15:39:21.494Z,33.47
2019-01-03T15:41:50.510Z,42.97
2019-01-03T15:44:19.191Z,40.57
2019-01-03T15:46:47.885Z,246.47
2019-01-03T15:49:16.801Z,184.13
2019-01-03T15:51:45.498Z,87.47
2019-01-03T15:54:14.186Z,44.63
2019-01-03T15:56:43.055Z,41.47
2019-01-03T15:59:11.732Z,55.87
2019-01-03T16:01:40.422Z,74.50
2019-01-03T16:04:09.166Z,70.60
2019-01-03T16:06:37.950Z,64.00
2019-01-03T16:09:06.929Z,46.33
2019-01-03T16:11:35.775Z,111.33
2019-01-03T16:14:04.456Z,174.13
2019-01-03T16:16:34.084Z,70.30
2019-01-03T16:19:02.885Z,53.67
2019-01-03T16:21:31.570Z,65.70
2019-01-03T16:24:00.244Z,49.40
2019-01-03T16:26:29.080Z,31.63
2019-01-03T16:28:57.762Z,30.07
2019-01-03T16:31:26.440Z,25.60
2019-01-03T16:33:55.267Z,20.80
2019-01-03T16:36:24.045Z,18.23
2019-01-03T16:38:52.738Z,42.23
2019-01-03T16:41:21.554Z,56.37
2019-01-03T16:43:50.226Z,48.47
2019-01-03T16:46:18.908Z,29.90
2019-01-03T16:48:47.723Z,25.90
2019-01-03T16:51:16.418Z,22.03
2019-01-03T16:53:45.408Z,20.90
2019-01-03T16:56:14.236Z,18.47
2019-01-03T16:58:42.923Z,15.53
2019-01-03T17:01:12.438Z,16.67
2019-01-03T17:03:43.155Z,16.50
2019-01-03T17:06:11.776Z,16.20
2019-01-03T17:08:40.460Z,16.53
2019-01-03T17:11:09.450Z,16.60
2019-01-03T17:13:42.054Z,18.23
2019-01-03T17:16:10.435Z,18.37
2019-01-03T17:18:42.241Z,18.63
2019-01-03T17:21:14.892Z,19.53
2019-01-03T17:23:43.891Z,58.97
2019-01-03T17:26:12.560Z,48.93
2019-01-03T17:28:42.256Z,63.93
2019-01-03T17:31:11.279Z,83.50
2019-01-03T17:33:43.147Z,81.00
2019-01-03T17:36:15.621Z,36.57
2019-01-03T17:38:45.234Z,53.20
2019-01-03T17:41:13.920Z,66.17
2019-01-03T17:43:51.337Z,66.27
2019-01-03T17:46:21.616Z,60.23
2019-01-03T17:48:52.077Z,82.60
2019-01-03T17:51:20.924Z,49.77
2019-01-03T17:53:49.603Z,33.10
2019-01-03T17:56:22.151Z,47.13
2019-01-03T17:58:51.074Z,35.63
2019-01-03T18:01:19.751Z,47.07
2019-01-03T18:03:48.443Z,48.80
2019-01-03T18:06:17.310Z,43.57
2019-01-03T18:08:46.007Z,62.97
2019-01-03T18:11:14.697Z,35.87
2019-01-03T18:13:43.627Z,38.17
2019-01-03T18:16:12.403Z,28.03
2019-01-03T18:18:41.104Z,39.30
2019-01-03T18:21:10.124Z,52.10
2019-01-03T18:23:39.737Z,77.10
2019-01-03T18:26:08.439Z,47.63
2019-01-03T18:28:37.171Z,63.63
2019-01-03T18:31:05.854Z,87.17
2019-01-03T18:33:38.486Z,60.17
2019-01-03T18:36:07.319Z,89.10
2019-01-03T18:38:36.016Z,58.37
2019-01-03T18:41:04.702Z,56.67
2019-01-03T18:43:33.445Z,43.13
2019-01-03T18:46:02.923Z,51.23
2019-01-03T18:48:31.632Z,43.87
2019-01-03T18:51:00.382Z,54.03
2019-01-03T18:53:29.066Z,30.97
2019-01-03T18:55:57.780Z,44.10
2019-01-03T18:58:26.621Z,58.90
2019-01-03T19:00:55.328Z,53.00
2019-01-03T19:03:24.017Z,53.53
2019-01-03T19:05:52.886Z,34.83
2019-01-03T19:08:21.562Z,41.00
2019-01-03T19:10:50.250Z,61.00
2019-01-03T19:13:20.444Z,41.60
2019-01-03T19:15:49.132Z,47.40
2019-01-03T19:18:17.815Z,42.77
2019-01-03T19:20:46.736Z,30.57
2019-01-03T19:23:15.415Z,28.20
2019-01-03T19:25:44.131Z,17.63
2019-01-03T19:28:12.885Z,15.67
2019-01-03T19:30:43.020Z,16.13
2019-01-03T19:33:11.702Z,15.43
2019-01-03T19:35:40.538Z,14.33
2019-01-03T19:38:09.217Z,14.57
2019-01-03T19:40:37.927Z,10.30
2019-01-03T19:43:06.888Z,8.53
2019-01-03T19:45:35.567Z,9.37
2019-01-03T19:48:04.242Z,8.47
2019-01-03T19:50:33.080Z,10.07
2019-01-03T19:53:01.770Z,8.30
2019-01-03T19:55:30.452Z,9.73
2019-01-03T19:57:59.167Z,14.87
2019-01-03T20:00:27.864Z,14.37
2019-01-03T20:02:56.583Z,16.20
2019-01-03T20:05:25.625Z,13.17
2019-01-03T20:07:54.327Z,11.40
2019-01-03T20:10:23.011Z,13.30
2019-01-03T20:12:51.957Z,11.27
2019-01-03T20:15:20.638Z,11.73
2019-01-03T20:17:49.623Z,12.23
2019-01-03T20:20:21.488Z,15.77
2019-01-03T20:22:50.179Z,20.63
2019-01-03T20:25:18.869Z,15.07
2019-01-03T20:27:47.855Z,13.77
2019-01-03T20:30:16.554Z,20.80
2019-01-03T20:32:45.254Z,13.37
2019-01-03T20:35:14.057Z,24.40
2019-01-03T20:37:42.774Z,15.83
2019-01-03T20:40:11.439Z,22.57
2019-01-03T20:42:40.435Z,25.13
2019-01-03T20:45:11.588Z,22.57
2019-01-03T20:47:40.378Z,19.93
2019-01-03T20:50:13.227Z,14.50
2019-01-03T20:52:41.916Z,18.07
2019-01-03T20:55:10.593Z,15.10
2019-01-03T20:57:39.417Z,18.60
2019-01-03T21:00:11.067Z,19.70
2019-01-03T21:02:39.773Z,16.73
2019-01-03T21:05:08.927Z,15.73
2019-01-03T21:07:37.651Z,27.47
2019-01-03T21:10:09.539Z,11.63
2019-01-03T21:12:38.509Z,18.67
2019-01-03T21:15:10.204Z,22.97
2019-01-03T21:17:39.021Z,21.60
2019-01-03T21:20:13.065Z,12.47
2019-01-03T21:22:41.937Z,10.60
2019-01-03T21:25:11.661Z,8.40
2019-01-03T21:27:40.638Z,20.03
2019-01-03T21:30:12.723Z,13.33
2019-01-03T21:32:41.404Z,14.77
2019-01-03T21:35:10.187Z,18.90
2019-01-03T21:37:39.020Z,10.80
2019-01-03T21:40:10.210Z,24.77
2019-01-03T21:42:38.881Z,8.00
2019-01-03T21:45:10.620Z,7.43
2019-01-03T21:47:39.302Z,8.30
2019-01-03T21:50:11.415Z,7.97
2019-01-03T21:52:40.278Z,6.87
2019-01-03T21:55:08.932Z,6.77
2019-01-03T21:57:37.610Z,9.17
2019-01-03T22:00:11.522Z,9.43
2019-01-03T22:02:40.223Z,7.90
2019-01-03T22:05:09.011Z,5.10
2019-01-03T22:07:37.798Z,8.20
2019-01-03T22:10:09.044Z,7.10
2019-01-03T22:12:37.732Z,8.33
2019-01-03T22:15:09.174Z,5.67
2019-01-03T22:17:37.855Z,8.77
2019-01-03T22:20:08.441Z,9.83
2019-01-03T22:22:37.168Z,5.53
2019-01-03T22:25:07.744Z,9.90
2019-01-03T22:27:36.500Z,7.53
2019-01-03T22:30:08.141Z,6.93
2019-01-03T22:32:36.818Z,10.93
2019-01-03T22:35:06.504Z,9.83
2019-01-03T22:37:35.616Z,7.40
2019-01-03T22:40:04.865Z,6.13
2019-01-03T22:42:33.545Z,11.63
2019-01-03T22:45:02.579Z,9.13
2019-01-03T22:47:31.251Z,8.93
2019-01-03T22:49:59.922Z,9.03
2019-01-03T22:52:28.655Z,9.60
2019-01-03T22:54:57.338Z,12.47
2019-01-03T22:57:26.023Z,6.73
2019-01-03T22:59:54.743Z,10.20
2019-01-03T23:02:23.417Z,13.23
2019-01-03T23:04:52.105Z,9.03
2019-01-03T23:07:20.938Z,8.17
2019-01-03T23:09:49.620Z,10.00
2019-01-03T23:12:18.295Z,10.33
2019-01-03T23:14:47.330Z,16.23
2019-01-03T23:17:16.010Z,19.13
2019-01-03T23:19:44.696Z,7.60
2019-01-03T23:22:13.537Z,12.13
2019-01-03T23:24:42.222Z,10.67
2019-01-03T23:27:10.903Z,10.00
2019-01-03T23:29:40.781Z,10.93
2019-01-03T23:32:09.458Z,10.83
2019-01-03T23:34:38.127Z,9.23
2019-01-03T23:37:07.037Z,8.87
2019-01-03T23:39:35.706Z,8.57
2019-01-03T23:42:04.382Z,8.03
2019-01-03T23:44:33.202Z,9.77
2019-01-03T23:47:02.311Z,8.77
2019-01-03T23:49:31.080Z,8.37
2019-01-03T23:51:59.910Z,7.93
2019-01-03T23:54:28.577Z,8.20
2019-01-03T23:56:57.248Z,6.57
2019-01-03T23:59:25.992Z,6.73
